Time;durP1;ratioP1;P1;durP2;ratioP2;P2;SDS_P1;SDS_P2;PMS_P1;PMS_P2;Temp;Humidity;BMP_temperature;BMP_pressure;BME280_temperature;BME280_humidity;BME280_pressure;Samples;Min_cycle;Max_cycle;Signal;HPM_P1;HPM_P2
2023/04/23 00:00:35;;;;;;;55.10;37.05;;;10.50;99.90;;;;;;5057173;28;20056;-60
2023/04/23 00:03:09;;;;;;;56.47;37.72;;;10.50;99.90;;;;;;5053786;28;20524;-61
2023/04/23 00:05:36;;;;;;;56.58;36.60;;;10.40;99.90;;;;;;5054758;28;20424;-60
2023/04/23 00:08:02;;;;;;;57.03;39.45;;;10.50;99.90;;;;;;5052112;28;20040;-61
2023/04/23 00:10:28;;;;;;;57.17;38.28;;;10.50;99.90;;;;;;5059025;28;20028;-60
2023/04/23 00:12:54;;;;;;;60.10;39.45;;;10.50;99.90;;;;;;5054123;28;20123;-59
2023/04/23 00:15:21;;;;;;;56.42;38.42;;;10.50;99.90;;;;;;5055251;28;20037;-60
2023/04/23 00:17:47;;;;;;;61.63;39.72;;;10.40;99.90;;;;;;5062673;28;20036;-60
2023/04/23 00:20:13;;;;;;;60.05;39.97;;;10.50;99.90;;;;;;5058206;28;20082;-60
2023/04/23 00:22:39;;;;;;;58.22;38.13;;;10.40;99.90;;;;;;5064470;28;20608;-60
2023/04/23 00:25:05;;;;;;;58.05;38.00;;;10.40;99.90;;;;;;5053864;28;20131;-59
2023/04/23 00:27:31;;;;;;;57.90;38.33;;;10.30;99.90;;;;;;5050203;28;20557;-59
2023/04/23 00:29:56;;;;;;;57.92;38.28;;;10.30;99.90;;;;;;5054418;28;20060;-60
2023/04/23 00:32:22;;;;;;;55.90;37.80;;;10.40;99.90;;;;;;5054870;28;20179;-60
2023/04/23 00:34:48;;;;;;;54.67;35.40;;;10.50;99.90;;;;;;5048829;28;20021;-60
2023/04/23 00:37:14;;;;;;;57.50;36.97;;;10.40;99.90;;;;;;5044433;28;20024;-60
2023/04/23 00:39:39;;;;;;;50.08;34.35;;;10.30;99.90;;;;;;5044361;28;20219;-61
2023/04/23 00:42:11;;;;;;;49.10;34.00;;;10.30;99.90;;;;;;5047231;27;20106;-60
2023/04/23 00:44:37;;;;;;;48.60;34.25;;;10.20;99.90;;;;;;5045852;28;20443;-60
2023/04/23 00:47:04;;;;;;;48.10;33.47;;;10.30;99.90;;;;;;5050605;28;20040;-60
2023/04/23 00:49:30;;;;;;;49.03;33.75;;;10.20;99.90;;;;;;5043181;28;20040;-60
2023/04/23 00:51:56;;;;;;;49.60;33.28;;;10.30;99.90;;;;;;5044789;28;20048;-59
2023/04/23 00:54:21;;;;;;;47.28;32.22;;;10.30;99.90;;;;;;5045874;28;20051;-60
2023/04/23 00:56:48;;;;;;;46.35;31.75;;;10.30;99.90;;;;;;5044532;28;20532;-60
2023/04/23 00:59:14;;;;;;;44.05;30.40;;;10.30;99.90;;;;;;5049618;28;20033;-60
2023/04/23 01:01:40;;;;;;;48.03;32.55;;;10.30;99.90;;;;;;5043080;28;20972;-60
2023/04/23 01:04:08;;;;;;;45.53;31.10;;;10.40;99.90;;;;;;5049395;28;20073;-61
2023/04/23 01:06:34;;;;;;;44.50;30.70;;;10.30;99.90;;;;;;5045202;28;20583;-61
2023/04/23 01:09:00;;;;;;;43.45;29.77;;;10.30;99.90;;;;;;5043921;28;20043;-60
2023/04/23 01:11:26;;;;;;;40.60;29.60;;;10.30;99.90;;;;;;5048616;28;20033;-60
2023/04/23 01:13:52;;;;;;;40.42;29.02;;;10.30;99.90;;;;;;5046044;28;20382;-60
2023/04/23 01:16:18;;;;;;;40.92;29.95;;;10.20;99.90;;;;;;5044344;28;20037;-60
2023/04/23 01:18:43;;;;;;;36.92;27.42;;;10.20;99.90;;;;;;5046182;28;20039;-60
2023/04/23 01:21:15;;;;;;;39.65;29.33;;;10.20;99.90;;;;;;5046168;28;20032;-60
2023/04/23 01:23:41;;;;;;;41.35;29.90;;;10.20;99.90;;;;;;5046947;28;20488;-60
2023/04/23 01:26:07;;;;;;;41.45;28.13;;;10.10;99.90;;;;;;5044894;28;20033;-60
2023/04/23 01:28:33;;;;;;;38.72;27.55;;;10.20;99.90;;;;;;5049105;28;20111;-60
2023/04/23 01:30:59;;;;;;;38.72;28.17;;;10.30;99.90;;;;;;5048110;28;20086;-60
2023/04/23 01:33:25;;;;;;;41.60;29.00;;;10.10;99.90;;;;;;5050803;28;20114;-60
2023/04/23 01:35:51;;;;;;;40.35;28.67;;;10.10;99.90;;;;;;5043921;28;20756;-60
2023/04/23 01:38:19;;;;;;;38.97;28.77;;;10.10;99.90;;;;;;5043789;28;20101;-60
2023/04/23 01:40:44;;;;;;;36.80;27.30;;;10.00;99.90;;;;;;5052701;28;20436;-59
2023/04/23 01:43:10;;;;;;;39.13;27.33;;;10.00;99.90;;;;;;5046902;27;20167;-60
2023/04/23 01:45:36;;;;;;;38.38;27.60;;;10.00;99.90;;;;;;5042822;28;20025;-60
2023/04/23 01:48:02;;;;;;;34.92;27.27;;;9.90;99.90;;;;;;5046698;28;20132;-60
2023/04/23 01:50:28;;;;;;;39.30;27.08;;;9.80;99.90;;;;;;5051108;28;20037;-60
2023/04/23 01:52:54;;;;;;;37.22;28.05;;;9.90;99.90;;;;;;5051786;28;20028;-60
2023/04/23 01:55:20;;;;;;;39.50;27.48;;;9.80;99.90;;;;;;5048691;28;20029;-62
2023/04/23 01:57:46;;;;;;;37.35;27.88;;;9.70;99.90;;;;;;5053368;28;20028;-60
2023/04/23 02:00:13;;;;;;;37.20;27.63;;;9.80;99.90;;;;;;5051785;28;20048;-60
2023/04/23 02:02:41;;;;;;;37.53;25.27;;;9.70;99.90;;;;;;5058221;28;20097;-60
2023/04/23 02:05:17;;;;;;;35.15;26.65;;;9.60;99.90;;;;;;5045616;28;20033;-59
2023/04/23 02:07:44;;;;;;;38.67;27.40;;;9.60;99.90;;;;;;5035811;28;20024;-60
2023/04/23 02:10:10;;;;;;;36.45;26.85;;;9.60;99.90;;;;;;5054942;28;20036;-60
2023/04/23 02:12:37;;;;;;;41.38;28.40;;;9.60;99.90;;;;;;5051898;28;20040;-60
2023/04/23 02:15:03;;;;;;;41.08;29.80;;;9.60;99.90;;;;;;5047086;28;20331;-60
2023/04/23 02:17:29;;;;;;;39.97;28.67;;;9.60;99.90;;;;;;5056615;28;20815;-60
2023/04/23 02:19:55;;;;;;;43.35;30.42;;;9.70;99.90;;;;;;5054443;28;20493;-60
2023/04/23 02:22:23;;;;;;;42.17;30.40;;;9.60;99.90;;;;;;5052960;28;22608;-60
2023/04/23 02:24:52;;;;;;;39.08;28.48;;;9.50;99.90;;;;;;5051756;28;20032;-60
2023/04/23 02:27:18;;;;;;;38.50;27.67;;;9.50;99.90;;;;;;5052176;28;20568;-60
2023/04/23 02:29:44;;;;;;;40.10;27.67;;;9.50;99.90;;;;;;5051900;28;20127;-60
2023/04/23 02:32:10;;;;;;;38.63;26.27;;;9.40;99.90;;;;;;5048581;28;20134;-60
2023/04/23 02:34:36;;;;;;;34.00;26.00;;;9.40;99.90;;;;;;5056597;28;20314;-60
2023/04/23 02:37:03;;;;;;;39.25;27.88;;;9.40;99.90;;;;;;5048281;28;20484;-60
2023/04/23 02:39:30;;;;;;;37.28;27.02;;;9.40;99.90;;;;;;5051393;28;20136;-60
2023/04/23 02:41:56;;;;;;;36.53;26.73;;;9.40;99.90;;;;;;5055101;27;20116;-60
2023/04/23 02:44:22;;;;;;;36.20;26.35;;;9.30;99.90;;;;;;5049496;28;20136;-60
2023/04/23 02:46:48;;;;;;;36.58;26.85;;;9.40;99.90;;;;;;5057184;28;20123;-60
2023/04/23 02:49:14;;;;;;;37.83;26.77;;;9.30;99.90;;;;;;5053636;28;20021;-61
2023/04/23 02:51:39;;;;;;;33.42;25.65;;;9.40;99.90;;;;;;5049986;28;20029;-60
2023/04/23 02:54:05;;;;;;;35.47;26.88;;;9.40;99.90;;;;;;5054382;28;20161;-60
2023/04/23 02:56:31;;;;;;;36.47;27.20;;;9.50;99.90;;;;;;5050305;28;20116;-59
2023/04/23 02:58:56;;;;;;;37.33;26.10;;;9.60;99.90;;;;;;5052777;28;20083;-60
2023/04/23 03:01:22;;;;;;;38.03;27.35;;;9.60;99.90;;;;;;5058031;28;20044;-60
2023/04/23 03:03:47;;;;;;;36.10;27.48;;;9.60;99.90;;;;;;5052595;28;20042;-60
2023/04/23 03:06:13;;;;;;;38.65;27.42;;;9.60;99.90;;;;;;5054046;28;20044;-60
2023/04/23 03:08:39;;;;;;;36.83;26.58;;;9.70;99.90;;;;;;5054029;28;20034;-60
2023/04/23 03:11:05;;;;;;;39.88;28.13;;;9.50;99.90;;;;;;5054174;28;20021;-60
2023/04/23 03:13:30;;;;;;;41.70;29.63;;;9.60;99.90;;;;;;5051291;28;20032;-60
2023/04/23 03:15:56;;;;;;;40.50;29.40;;;9.70;99.90;;;;;;5059369;28;20121;-60
2023/04/23 03:18:22;;;;;;;43.63;29.92;;;9.70;99.90;;;;;;5057311;28;20043;-60
2023/04/23 03:20:47;;;;;;;42.92;31.23;;;9.80;99.90;;;;;;5060203;28;20036;-60
2023/04/23 03:23:13;;;;;;;46.80;31.85;;;9.90;99.90;;;;;;5055710;28;20109;-60
2023/04/23 03:25:39;;;;;;;42.50;31.40;;;10.00;99.90;;;;;;5055036;28;20139;-60
2023/04/23 03:28:05;;;;;;;43.28;30.77;;;9.90;99.90;;;;;;5057581;28;20047;-60
2023/04/23 03:30:31;;;;;;;41.28;30.63;;;10.00;99.90;;;;;;5053504;28;20036;-60
2023/04/23 03:32:57;;;;;;;46.58;32.63;;;10.00;99.90;;;;;;5063150;28;20112;-60
2023/04/23 03:35:23;;;;;;;42.20;31.23;;;9.80;99.90;;;;;;5052725;28;20063;-63
2023/04/23 03:37:49;;;;;;;41.45;29.25;;;9.90;99.90;;;;;;5058174;28;20025;-59
2023/04/23 03:40:14;;;;;;;42.65;29.77;;;9.90;99.90;;;;;;5054319;28;20029;-59
2023/04/23 03:42:40;;;;;;;44.85;30.80;;;9.90;99.90;;;;;;5060248;27;20623;-59
2023/04/23 03:45:06;;;;;;;42.60;31.45;;;10.00;99.90;;;;;;5054298;28;20039;-60
2023/04/23 03:47:32;;;;;;;46.30;31.33;;;10.10;99.90;;;;;;5055038;28;20040;-61
2023/04/23 03:49:57;;;;;;;42.05;31.95;;;10.10;99.90;;;;;;5059765;28;20051;-62
2023/04/23 03:52:23;;;;;;;43.42;32.40;;;10.10;99.90;;;;;;5053426;28;20040;-63
2023/04/23 03:54:49;;;;;;;45.25;32.35;;;10.00;99.90;;;;;;5057264;28;20032;-63
2023/04/23 03:57:15;;;;;;;49.50;33.65;;;10.00;99.90;;;;;;5054323;28;20104;-62
2023/04/23 03:59:41;;;;;;;49.47;33.90;;;10.20;99.90;;;;;;5060868;28;20115;-60
2023/04/23 04:02:06;;;;;;;46.92;34.00;;;10.20;99.90;;;;;;5061375;27;20069;-61
2023/04/23 04:04:32;;;;;;;46.90;32.40;;;10.20;99.90;;;;;;5060013;28;20129;-60
2023/04/23 04:07:01;;;;;;;44.38;32.85;;;10.10;99.90;;;;;;5056530;28;20028;-59
2023/04/23 04:09:27;;;;;;;47.42;33.17;;;10.10;99.90;;;;;;5058887;28;20488;-59
2023/04/23 04:11:53;;;;;;;45.72;32.78;;;10.00;99.90;;;;;;5060589;28;20111;-60
2023/04/23 04:14:20;;;;;;;43.67;31.42;;;10.00;99.90;;;;;;5054652;28;20044;-60
2023/04/23 04:16:46;;;;;;;46.28;32.65;;;10.00;99.90;;;;;;5052060;28;20079;-60
2023/04/23 04:19:11;;;;;;;47.58;34.28;;;10.10;99.90;;;;;;5059139;28;20516;-60
2023/04/23 04:21:37;;;;;;;44.15;32.00;;;10.10;99.90;;;;;;5064313;28;20395;-60
2023/04/23 04:24:06;;;;;;;50.72;34.63;;;10.20;99.90;;;;;;5065673;28;20716;-60
2023/04/23 04:26:33;;;;;;;46.15;31.88;;;10.00;99.90;;;;;;5054050;28;20337;-59
2023/04/23 04:29:00;;;;;;;47.50;33.03;;;9.90;99.90;;;;;;5058405;28;20048;-60
2023/04/23 04:31:27;;;;;;;43.80;31.55;;;9.90;99.90;;;;;;5047197;28;20526;-60
2023/04/23 04:33:54;;;;;;;42.75;31.75;;;10.00;99.90;;;;;;5048264;28;20083;-60
2023/04/23 04:36:20;;;;;;;45.42;32.03;;;10.00;99.90;;;;;;5042265;28;20052;-60
2023/04/23 04:38:46;;;;;;;43.60;31.67;;;9.90;99.90;;;;;;5048227;28;20445;-61
2023/04/23 04:41:12;;;;;;;46.90;32.10;;;10.00;99.90;;;;;;5047489;27;20064;-60
2023/04/23 04:43:38;;;;;;;44.45;31.48;;;10.00;99.90;;;;;;5043375;28;20990;-60
2023/04/23 04:46:04;;;;;;;46.50;32.50;;;10.00;99.90;;;;;;5029577;28;20048;-60
2023/04/23 04:48:30;;;;;;;45.65;32.88;;;10.10;99.90;;;;;;5050083;28;20041;-60
2023/04/23 04:50:55;;;;;;;47.45;34.03;;;10.10;99.90;;;;;;5043416;28;20091;-60
2023/04/23 04:53:21;;;;;;;45.45;31.95;;;10.20;99.90;;;;;;5045480;28;20052;-60
2023/04/23 04:55:47;;;;;;;48.50;34.70;;;10.30;99.90;;;;;;5046015;28;20064;-60
2023/04/23 04:58:13;;;;;;;47.15;33.88;;;10.30;99.90;;;;;;5047884;28;20033;-60
2023/04/23 05:00:38;;;;;;;48.38;33.75;;;10.40;99.90;;;;;;5055026;28;20038;-60
2023/04/23 05:03:04;;;;;;;50.17;36.05;;;10.40;99.90;;;;;;5048432;28;20045;-60
2023/04/23 05:05:32;;;;;;;51.92;35.65;;;10.40;99.90;;;;;;5048934;28;20044;-59
2023/04/23 05:08:03;;;;;;;52.35;37.05;;;10.50;99.90;;;;;;5043377;28;20040;-60
2023/04/23 05:10:29;;;;;;;55.83;38.60;;;10.60;99.90;;;;;;5047987;28;20418;-60
2023/04/23 05:12:59;;;;;;;52.47;37.08;;;10.70;99.90;;;;;;5052696;28;20044;-60
2023/04/23 05:15:25;;;;;;;47.28;34.00;;;10.70;99.90;;;;;;5045703;28;20132;-60
2023/04/23 05:17:52;;;;;;;49.00;33.97;;;10.80;99.90;;;;;;5048923;28;20041;-60
2023/04/23 05:20:18;;;;;;;48.50;33.28;;;10.90;99.90;;;;;;5044905;28;20355;-60
2023/04/23 05:22:44;;;;;;;45.55;32.75;;;10.90;99.90;;;;;;5048394;28;20515;-60
2023/04/23 05:25:13;;;;;;;45.53;32.05;;;10.80;99.90;;;;;;5050106;28;20203;-60
2023/04/23 05:27:39;;;;;;;40.17;30.00;;;10.80;99.90;;;;;;5054212;28;20067;-60
2023/04/23 05:30:09;;;;;;;44.08;32.53;;;10.90;99.90;;;;;;5049912;28;20544;-59
2023/04/23 05:32:35;;;;;;;45.20;32.90;;;11.00;99.90;;;;;;5057640;28;20160;-60
2023/04/23 05:35:02;;;;;;;46.67;33.25;;;11.00;99.90;;;;;;5050156;28;20025;-60
2023/04/23 05:37:29;;;;;;;48.38;35.25;;;11.10;99.90;;;;;;5048756;28;20075;-60
2023/04/23 05:39:54;;;;;;;53.67;35.88;;;11.00;99.90;;;;;;5054558;28;20573;-58
2023/04/23 05:42:20;;;;;;;53.58;37.60;;;11.10;99.90;;;;;;5053363;28;20025;-58
2023/04/23 05:44:46;;;;;;;52.55;36.47;;;11.20;99.90;;;;;;5051093;28;20304;-58
2023/04/23 05:47:13;;;;;;;50.00;36.38;;;11.00;99.90;;;;;;5056726;28;20036;-58
2023/04/23 05:49:38;;;;;;;52.63;36.55;;;11.10;99.90;;;;;;5053241;28;20024;-59
2023/04/23 05:52:04;;;;;;;53.92;36.88;;;11.10;99.90;;;;;;5053769;28;20103;-58
2023/04/23 05:54:30;;;;;;;52.38;37.35;;;11.10;99.90;;;;;;5054374;28;20702;-58
2023/04/23 05:56:55;;;;;;;56.50;38.75;;;11.20;99.90;;;;;;5054199;28;20511;-59
2023/04/23 05:59:21;;;;;;;55.28;36.75;;;11.30;99.90;;;;;;5060016;28;20047;-59
2023/04/23 06:01:47;;;;;;;53.50;37.15;;;11.30;99.90;;;;;;5053773;28;20117;-59
2023/04/23 06:04:13;;;;;;;47.78;34.33;;;11.40;99.90;;;;;;5057028;28;20032;-58
2023/04/23 06:06:39;;;;;;;51.25;35.17;;;11.30;99.90;;;;;;5055981;28;20031;-59
2023/04/23 06:09:05;;;;;;;44.75;32.15;;;11.30;99.90;;;;;;5052827;28;20064;-58
2023/04/23 06:11:31;;;;;;;47.47;33.55;;;11.30;99.90;;;;;;5057408;28;20164;-58
2023/04/23 06:13:58;;;;;;;44.95;33.00;;;11.50;99.90;;;;;;5053824;28;20194;-59
2023/04/23 06:16:24;;;;;;;45.53;32.65;;;11.50;99.90;;;;;;5050316;28;20090;-59
2023/04/23 06:18:50;;;;;;;43.42;31.08;;;11.60;99.90;;;;;;5059358;28;20413;-58
2023/04/23 06:21:16;;;;;;;39.75;31.02;;;11.60;99.90;;;;;;5051992;28;20040;-58
2023/04/23 06:23:41;;;;;;;41.72;29.85;;;11.50;99.90;;;;;;5047146;28;20037;-59
2023/04/23 06:26:07;;;;;;;38.67;28.95;;;11.40;99.90;;;;;;5065543;28;20032;-59
2023/04/23 06:28:32;;;;;;;40.10;30.23;;;11.60;99.90;;;;;;5062483;28;20339;-59
2023/04/23 06:30:58;;;;;;;38.65;29.15;;;11.60;99.90;;;;;;5059656;28;20048;-59
2023/04/23 06:33:24;;;;;;;37.97;28.45;;;11.70;99.90;;;;;;5058968;28;20040;-59
2023/04/23 06:35:49;;;;;;;38.40;28.92;;;11.70;99.90;;;;;;5048285;28;20039;-59
2023/04/23 06:38:17;;;;;;;35.80;27.25;;;11.70;99.90;;;;;;5051523;28;20174;-59
2023/04/23 06:40:43;;;;;;;31.42;25.55;;;11.70;99.90;;;;;;5059321;28;20110;-58
2023/04/23 06:43:08;;;;;;;33.92;26.15;;;11.70;99.90;;;;;;5057354;28;20083;-58
2023/04/23 06:45:34;;;;;;;31.88;24.92;;;11.60;99.90;;;;;;5062380;28;20482;-59
2023/04/23 06:48:00;;;;;;;34.42;24.77;;;11.70;99.90;;;;;;5057863;28;20033;-59
2023/04/23 06:50:25;;;;;;;32.45;23.95;;;11.80;99.90;;;;;;5056445;28;20194;-56
2023/04/23 06:52:52;;;;;;;32.13;25.13;;;11.80;99.90;;;;;;5062586;28;20471;-56
2023/04/23 06:55:18;;;;;;;32.75;25.15;;;11.80;99.90;;;;;;5058338;28;20437;-55
2023/04/23 06:57:44;;;;;;;33.25;25.33;;;11.90;99.90;;;;;;5066224;28;20458;-56
2023/04/23 07:00:10;;;;;;;33.05;25.83;;;12.20;99.90;;;;;;5054317;28;20056;-57
2023/04/23 07:02:36;;;;;;;33.35;24.25;;;12.20;99.90;;;;;;5060948;28;20052;-56
2023/04/23 07:05:02;;;;;;;32.05;23.90;;;12.40;99.90;;;;;;5056527;28;20085;-56
2023/04/23 07:07:28;;;;;;;29.63;22.90;;;12.50;99.90;;;;;;5060017;28;20745;-56
2023/04/23 07:09:54;;;;;;;36.80;24.58;;;12.40;99.90;;;;;;5047025;28;20037;-56
2023/04/23 07:12:19;;;;;;;26.85;20.88;;;12.60;99.90;;;;;;5054566;27;20404;-56
2023/04/23 07:14:45;;;;;;;24.02;17.90;;;12.80;99.90;;;;;;5063045;28;20048;-56
2023/04/23 07:17:10;;;;;;;22.38;17.70;;;12.90;99.90;;;;;;5063977;27;20063;-56
2023/04/23 07:19:36;;;;;;;18.63;16.00;;;13.00;99.90;;;;;;5063961;28;20717;-59
2023/04/23 07:22:02;;;;;;;19.27;15.05;;;13.10;99.90;;;;;;5058300;27;20075;-59
2023/04/23 07:24:28;;;;;;;19.02;14.23;;;13.10;99.90;;;;;;5062011;28;20464;-59
2023/04/23 07:26:54;;;;;;;17.75;12.85;;;13.30;99.90;;;;;;5064248;28;20047;-59
2023/04/23 07:29:20;;;;;;;15.48;12.60;;;13.30;99.90;;;;;;5062649;28;20047;-59
2023/04/23 07:31:47;;;;;;;15.00;11.55;;;13.40;99.90;;;;;;5061711;28;20500;-59
2023/04/23 07:34:12;;;;;;;16.77;10.98;;;13.50;99.90;;;;;;5061764;28;20244;-59
2023/04/23 07:36:38;;;;;;;15.77;11.07;;;13.70;99.90;;;;;;5065003;28;20053;-59
2023/04/23 07:39:04;;;;;;;13.55;9.90;;;13.80;99.90;;;;;;5059044;28;20378;-60
2023/04/23 07:41:30;;;;;;;10.85;8.93;;;13.60;99.90;;;;;;5063617;28;20040;-59
2023/04/23 07:43:56;;;;;;;10.50;9.18;;;13.70;99.90;;;;;;5065114;28;20523;-59
2023/04/23 07:46:21;;;;;;;11.63;8.65;;;13.90;99.90;;;;;;5058914;28;20085;-60
2023/04/23 07:48:47;;;;;;;13.52;9.18;;;13.90;99.90;;;;;;5061578;28;20040;-59
2023/04/23 07:51:13;;;;;;;10.00;8.35;;;14.00;99.90;;;;;;5059861;28;20024;-59
2023/04/23 07:53:38;;;;;;;10.85;8.70;;;14.00;99.90;;;;;;5063754;28;20036;-59
2023/04/23 07:56:04;;;;;;;11.40;8.30;;;14.10;99.90;;;;;;5059869;28;20029;-61
2023/04/23 07:58:31;;;;;;;12.85;8.05;;;14.20;99.90;;;;;;5071554;27;20120;-59
2023/04/23 08:00:57;;;;;;;12.23;7.32;;;14.20;99.90;;;;;;5063321;28;20232;-60
2023/04/23 08:03:23;;;;;;;12.93;8.13;;;14.30;99.90;;;;;;5061519;28;20127;-59
2023/04/23 08:05:49;;;;;;;13.57;7.63;;;14.30;99.90;;;;;;5067632;28;20097;-59
2023/04/23 08:08:14;;;;;;;9.90;7.03;;;14.50;99.90;;;;;;5060528;28;20446;-56
2023/04/23 08:10:40;;;;;;;9.80;7.10;;;14.50;99.90;;;;;;5064982;28;20131;-57
2023/04/23 08:13:06;;;;;;;10.50;6.32;;;14.70;99.90;;;;;;5062288;28;20099;-57
2023/04/23 08:15:32;;;;;;;8.88;6.53;;;14.80;99.90;;;;;;5057815;28;20464;-58
2023/04/23 08:17:57;;;;;;;9.25;6.15;;;14.90;99.90;;;;;;5068153;27;20044;-58
2023/04/23 08:20:23;;;;;;;10.50;6.35;;;15.10;99.90;;;;;;5061442;28;20116;-57
2023/04/23 08:22:50;;;;;;;7.97;6.30;;;15.10;99.90;;;;;;5068076;28;20970;-58
2023/04/23 08:25:15;;;;;;;11.70;5.72;;;15.70;99.90;;;;;;5062807;28;20635;-58
2023/04/23 08:27:41;;;;;;;10.73;5.13;;;15.20;99.90;;;;;;5063684;28;20048;-57
2023/04/23 08:30:07;;;;;;;8.05;4.43;;;15.30;99.90;;;;;;5061560;28;20345;-58
2023/04/23 08:32:33;;;;;;;8.77;4.00;;;15.10;99.90;;;;;;5069185;28;20476;-57
2023/04/23 08:35:00;;;;;;;7.15;4.25;;;15.10;99.90;;;;;;5062879;28;20415;-57
2023/04/23 08:37:25;;;;;;;10.32;3.97;;;15.30;99.90;;;;;;5056107;28;20104;-57
2023/04/23 08:39:51;;;;;;;9.50;3.53;;;15.60;99.90;;;;;;5053825;28;20139;-58
2023/04/23 08:42:32;;;;;;;6.32;3.50;;;15.60;99.90;;;;;;5057963;27;20052;-58
2023/04/23 08:44:57;;;;;;;8.15;3.22;;;15.80;99.90;;;;;;5051698;28;20044;-58
2023/04/23 08:47:25;;;;;;;9.98;3.47;;;15.80;99.90;;;;;;5048294;28;20037;-58
2023/04/23 08:49:54;;;;;;;9.02;2.90;;;15.80;99.90;;;;;;5050105;28;20564;-58
2023/04/23 08:52:25;;;;;;;10.25;3.30;;;15.70;99.90;;;;;;5049110;28;20479;-58
2023/04/23 08:54:57;;;;;;;7.43;3.05;;;15.50;99.90;;;;;;5047408;28;20386;-57
2023/04/23 08:57:24;;;;;;;5.53;3.00;;;15.70;99.90;;;;;;5053707;28;20036;-58
2023/04/23 08:59:50;;;;;;;8.98;3.20;;;15.70;99.90;;;;;;5059809;28;20393;-59
2023/04/23 09:02:16;;;;;;;6.63;3.30;;;16.00;99.90;;;;;;5058699;28;20059;-59
2023/04/23 09:04:43;;;;;;;8.55;3.58;;;16.00;99.90;;;;;;5051153;28;20041;-59
2023/04/23 09:07:12;;;;;;;8.77;3.20;;;16.20;99.90;;;;;;5046890;28;20033;-59
2023/04/23 09:09:39;;;;;;;7.20;2.90;;;16.40;99.90;;;;;;5053602;28;20651;-60
2023/04/23 09:12:08;;;;;;;5.00;2.65;;;16.50;99.90;;;;;;5049338;28;20148;-59
2023/04/23 09:14:34;;;;;;;7.35;2.58;;;16.60;99.90;;;;;;5051139;27;20472;-59
2023/04/23 09:17:02;;;;;;;8.00;2.78;;;16.70;99.90;;;;;;5051211;28;20044;-59
2023/04/23 09:19:28;;;;;;;6.10;2.55;;;16.90;99.90;;;;;;5052689;28;20090;-59
2023/04/23 09:21:54;;;;;;;6.20;2.83;;;17.10;99.90;;;;;;5055022;28;20024;-59
2023/04/23 09:24:23;;;;;;;8.40;3.20;;;17.10;99.90;;;;;;5045296;28;20658;-59
2023/04/23 09:26:50;;;;;;;9.40;3.40;;;17.00;99.90;;;;;;5044436;28;20326;-60
2023/04/23 09:29:22;;;;;;;6.18;3.35;;;17.10;99.90;;;;;;5081857;28;20041;-61
2023/04/23 09:31:50;;;;;;;6.60;3.15;;;17.20;99.90;;;;;;5052376;28;20140;-60
2023/04/23 09:34:23;;;;;;;10.48;3.33;;;17.00;99.90;;;;;;5051153;28;20457;-59
2023/04/23 09:36:50;;;;;;;7.20;2.95;;;16.90;99.90;;;;;;5056353;28;20032;-59
2023/04/23 09:39:25;;;;;;;7.22;2.95;;;17.00;99.90;;;;;;5055692;28;20543;-60
2023/04/23 09:41:52;;;;;;;6.10;2.70;;;17.00;99.90;;;;;;5049241;28;20452;-59
2023/04/23 09:44:21;;;;;;;6.68;2.50;;;16.80;99.90;;;;;;5048716;28;20025;-60
2023/04/23 09:46:47;;;;;;;7.70;2.90;;;16.80;99.90;;;;;;5047984;28;20048;-59
2023/04/23 09:49:14;;;;;;;6.55;2.63;;;17.00;99.90;;;;;;5046282;28;20636;-60
2023/04/23 09:51:47;;;;;;;5.93;2.75;;;17.00;99.90;;;;;;5048870;28;20041;-60
2023/04/23 09:54:24;;;;;;;5.57;2.33;;;16.90;99.90;;;;;;5043947;28;20514;-59
2023/04/23 09:56:52;;;;;;;8.13;2.60;;;16.70;99.90;;;;;;5053347;28;20033;-60
2023/04/23 09:59:29;;;;;;;6.78;2.53;;;16.90;99.90;;;;;;5056949;28;20037;-59
2023/04/23 10:01:55;;;;;;;6.78;2.28;;;16.80;99.90;;;;;;5053383;28;20606;-60
2023/04/23 10:04:23;;;;;;;7.55;2.28;;;16.70;99.90;;;;;;5056385;28;20036;-60
2023/04/23 10:06:55;;;;;;;7.15;2.20;;;16.70;99.90;;;;;;5049312;28;20160;-61
2023/04/23 10:09:23;;;;;;;5.63;1.77;;;16.80;99.90;;;;;;5049002;28;20217;-59
2023/04/23 10:11:54;;;;;;;6.32;2.38;;;16.80;99.90;;;;;;5058570;28;20507;-60
2023/04/23 10:14:21;;;;;;;5.90;2.08;;;16.90;99.90;;;;;;5049787;28;20055;-60
2023/04/23 10:16:46;;;;;;;7.75;2.20;;;16.90;99.90;;;;;;5054374;28;20070;-60
2023/04/23 10:19:18;;;;;;;9.50;2.35;;;17.00;99.90;;;;;;5054776;28;20823;-59
2023/04/23 10:21:47;;;;;;;8.13;2.25;;;16.90;99.90;;;;;;5055239;28;20132;-60
2023/04/23 10:24:16;;;;;;;7.00;2.53;;;16.90;99.90;;;;;;5052214;28;20124;-60
2023/04/23 10:26:44;;;;;;;6.88;1.95;;;16.80;99.90;;;;;;5051397;28;20034;-60
2023/04/23 10:29:14;;;;;;;9.07;2.05;;;16.90;99.90;;;;;;5046045;28;20467;-59
2023/04/23 10:31:41;;;;;;;5.38;1.88;;;17.10;99.90;;;;;;5058231;28;20032;-60
2023/04/23 10:34:09;;;;;;;7.82;1.90;;;17.40;99.90;;;;;;5080553;28;20044;-59
2023/04/23 10:36:38;;;;;;;5.65;1.80;;;17.60;99.90;;;;;;5051277;28;20519;-59
2023/04/23 10:39:07;;;;;;;7.18;3.35;;;17.80;99.90;;;;;;5050702;28;20040;-60
2023/04/23 10:41:41;;;;;;;11.27;1.88;;;17.90;99.90;;;;;;5056318;28;20052;-59
2023/04/23 10:44:11;;;;;;;5.53;1.85;;;17.90;99.90;;;;;;5046569;28;20029;-60
2023/04/23 10:46:37;;;;;;;8.00;1.80;;;17.90;99.90;;;;;;5048728;28;20032;-60
2023/04/23 10:49:13;;;;;;;5.07;1.40;;;17.80;99.90;;;;;;5088847;27;20597;-60
2023/04/23 10:51:41;;;;;;;6.50;1.85;;;17.80;99.90;;;;;;5055872;28;20548;-59
2023/04/23 10:54:09;;;;;;;6.95;1.70;;;17.70;99.90;;;;;;5054780;28;20037;-60
2023/04/23 10:56:37;;;;;;;5.95;1.42;;;17.90;99.90;;;;;;5059935;28;20045;-60
2023/04/23 10:59:07;;;;;;;6.38;1.77;;;17.90;99.90;;;;;;5065693;27;20032;-60
2023/04/23 11:01:32;;;;;;;5.90;1.70;;;17.80;99.90;;;;;;5058074;27;20105;-60
2023/04/23 11:03:59;;;;;;;5.95;1.60;;;17.80;99.90;;;;;;5054983;28;20060;-60
2023/04/23 11:06:46;;;;;;;7.10;1.45;;;17.90;99.90;;;;;;5057073;28;20528;-60
2023/04/23 11:09:36;;;;;;;3.75;1.45;;;18.00;99.90;;;;;;5053892;27;20076;-59
2023/04/23 11:12:06;;;;;;;4.68;1.58;;;17.80;99.90;;;;;;5061655;27;20029;-60
2023/04/23 11:14:46;;;;;;;7.55;1.52;;;18.00;99.90;;;;;;5057808;27;20178;-60
2023/04/23 11:17:13;;;;;;;3.78;1.42;;;17.70;99.90;;;;;;5059142;28;20039;-60
2023/04/23 11:19:41;;;;;;;6.88;1.58;;;17.70;99.90;;;;;;5058646;28;20069;-63
2023/04/23 11:22:15;;;;;;;4.32;1.33;;;17.80;99.90;;;;;;5052558;28;20455;-60
2023/04/23 11:24:42;;;;;;;5.88;1.40;;;17.70;99.90;;;;;;5054335;28;20131;-60
2023/04/23 11:27:15;;;;;;;4.93;1.15;;;17.60;99.90;;;;;;5053527;28;20507;-60
2023/04/23 11:29:43;;;;;;;4.40;1.40;;;17.40;99.90;;;;;;5059701;28;20141;-60
2023/04/23 11:32:09;;;;;;;4.13;1.48;;;17.30;99.90;;;;;;5053389;28;20047;-60
2023/04/23 11:34:37;;;;;;;3.20;1.20;;;17.40;99.90;;;;;;5057352;28;20059;-60
2023/04/23 11:37:03;;;;;;;3.38;1.13;;;17.30;99.90;;;;;;5054559;28;20040;-60
2023/04/23 11:39:29;;;;;;;3.95;1.30;;;17.40;99.90;;;;;;5044036;28;20041;-60
2023/04/23 11:41:58;;;;;;;3.33;1.00;;;17.40;99.90;;;;;;5055976;28;20549;-60
2023/04/23 11:44:23;;;;;;;4.47;1.13;;;17.30;99.90;;;;;;5056037;28;20410;-60
2023/04/23 11:46:49;;;;;;;3.53;1.08;;;17.50;99.90;;;;;;5062480;28;20209;-60
2023/04/23 11:49:17;;;;;;;3.53;0.98;;;17.60;99.90;;;;;;5058301;28;20025;-60
2023/04/23 11:51:43;;;;;;;4.10;1.00;;;17.70;99.90;;;;;;5055990;28;20039;-61
2023/04/23 11:54:10;;;;;;;5.38;1.10;;;17.70;99.90;;;;;;5048891;28;20405;-61
2023/04/23 11:56:37;;;;;;;3.65;1.10;;;17.80;99.90;;;;;;5055037;28;20131;-60
2023/04/23 11:59:03;;;;;;;2.88;1.35;;;18.00;99.90;;;;;;5055039;28;20155;-60
2023/04/23 12:01:42;;;;;;;3.67;1.02;;;18.10;99.90;;;;;;5053815;28;20072;-60
2023/04/23 12:04:17;;;;;;;3.55;1.02;;;18.20;99.90;;;;;;5060242;28;20048;-61
2023/04/23 12:06:45;;;;;;;5.82;0.98;;;18.10;99.90;;;;;;5060812;28;20435;-60
2023/04/23 12:09:12;;;;;;;4.85;1.20;;;18.10;99.90;;;;;;5059886;28;20215;-60
2023/04/23 12:11:39;;;;;;;4.03;1.10;;;17.90;99.90;;;;;;5059672;28;20066;-61
2023/04/23 12:14:07;;;;;;;3.08;1.08;;;18.00;99.90;;;;;;5057033;28;20122;-60
2023/04/23 12:16:40;;;;;;;6.03;1.08;;;18.10;99.90;;;;;;5055457;28;20036;-61
2023/04/23 12:19:14;;;;;;;3.88;1.30;;;18.10;99.90;;;;;;5043065;28;20540;-60
2023/04/23 12:21:50;;;;;;;3.72;1.13;;;18.20;99.90;;;;;;5056767;28;20445;-60
2023/04/23 12:24:16;;;;;;;4.28;1.10;;;18.30;99.90;;;;;;5059907;28;20102;-60
2023/04/23 12:26:44;;;;;;;2.95;0.95;;;18.30;99.90;;;;;;5065676;28;20484;-60
2023/04/23 12:29:13;;;;;;;2.70;1.15;;;18.30;99.90;;;;;;5057048;28;20102;-60
2023/04/23 12:31:38;;;;;;;4.43;1.15;;;18.40;99.90;;;;;;5052279;28;20563;-61
2023/04/23 12:34:08;;;;;;;5.50;1.25;;;18.40;99.90;;;;;;5047681;27;20040;-60